Terminal Aerodrome Forecast
Issued by NWS Charleston, WV

Current Version | Previous Version | Text Only | Print | Product List | Glossary Off
Versions: 1 2 3 4 5 6 7 8 9 10 11 12 13 14 15 16 17 18 19 20 21 22 23 24 25 26 27

000
FTUS41 KRLX 230221 AAA
TAFBKW
TAF AMD
KBKW 230221Z 2302/2324 22005KT P6SM BKN005
     FM230600 27003KT 5SM BR OVC003
     FM231400 30004KT P6SM BKN008
     FM231800 33006KT P6SM SCT030
     FM232100 34006KT P6SM SCT130=

USA.gov is the U.S. government's official web portal to all federal, state and local government web resources and services.